Time;durP1;ratioP1;P1;durP2;ratioP2;P2;SDS_P1;SDS_P2;PMS_P1;PMS_P2;Temp;Humidity;BMP_temperature;BMP_pressure;BME280_temperature;BME280_humidity;BME280_pressure;Samples;Min_cycle;Max_cycle;Signal;HPM_P1;HPM_P2
2021/05/31 00:01:49;;;;;;;;;;;17.20;71.00;;;;;;5072896;28;19946;-64
2021/05/31 00:04:15;;;;;;;;;;;17.20;71.20;;;;;;5072623;28;20411;-66
2021/05/31 00:06:48;;;;;;;;;;;17.20;71.00;;;;;;5072826;28;19912;-65
2021/05/31 00:09:14;;;;;;;;;;;17.20;71.10;;;;;;5072796;28;20008;-66
2021/05/31 00:11:39;;;;;;;;;;;17.20;71.00;;;;;;5072081;28;20012;-65
2021/05/31 00:14:06;;;;;;;;;;;17.20;71.70;;;;;;5072270;28;20251;-64
2021/05/31 00:16:31;;;;;;;;;;;17.20;71.10;;;;;;5072111;28;20392;-66
2021/05/31 00:18:57;;;;;;;;;;;17.10;71.00;;;;;;5051350;28;19940;-65
2021/05/31 00:21:22;;;;;;;;;;;17.10;71.10;;;;;;5066516;28;20555;-65
2021/05/31 00:23:48;;;;;;;;;;;17.10;71.10;;;;;;5053614;28;20006;-65
2021/05/31 00:26:15;;;;;;;;;;;17.10;71.20;;;;;;5071869;28;19908;-64
2021/05/31 00:28:40;;;;;;;;;;;17.10;71.20;;;;;;5054243;28;19911;-65
2021/05/31 00:31:06;;;;;;;;;;;17.10;71.30;;;;;;5054308;28;19908;-68
2021/05/31 00:33:31;;;;;;;;;;;17.10;71.20;;;;;;5054080;28;19908;-68
2021/05/31 00:35:57;;;;;;;;;;;17.10;71.40;;;;;;5053913;28;19957;-65
2021/05/31 00:38:22;;;;;;;;;;;17.10;71.50;;;;;;5072353;28;19912;-66
2021/05/31 00:40:48;;;;;;;;;;;17.10;71.50;;;;;;5071984;28;19912;-65
2021/05/31 00:43:13;;;;;;;;;;;17.00;71.30;;;;;;5071786;28;19908;-64
2021/05/31 00:45:38;;;;;;;;;;;17.00;71.40;;;;;;5053436;28;19908;-65
2021/05/31 00:48:04;;;;;;;;;;;17.00;71.40;;;;;;5071922;28;19904;-65
2021/05/31 00:50:30;;;;;;;;;;;17.00;71.40;;;;;;5071406;28;19908;-65
2021/05/31 00:52:56;;;;;;;;;;;17.00;71.70;;;;;;5071779;28;19915;-66
2021/05/31 00:55:21;;;;;;;;;;;17.00;71.70;;;;;;5071581;28;20297;-66
2021/05/31 00:57:47;;;;;;;;;;;17.00;71.50;;;;;;5072082;28;19904;-64
2021/05/31 01:00:12;;;;;;;;;;;17.00;71.70;;;;;;5071963;28;19904;-66
2021/05/31 01:02:38;;;;;;;;;;;17.00;71.70;;;;;;5071591;28;19927;-65
2021/05/31 01:05:04;;;;;;;;;;;17.00;72.10;;;;;;5071406;28;19908;-64
2021/05/31 01:07:36;;;;;;;;;;;17.00;71.70;;;;;;5070963;28;19998;-66
2021/05/31 01:10:31;;;;;;;;;;;17.00;71.60;;;;;;5071519;28;20443;-66
2021/05/31 01:13:15;;;;;;;;;;;16.90;71.70;;;;;;5038496;28;19908;-65
2021/05/31 01:15:45;;;;;;;;;;;16.90;71.90;;;;;;5061283;28;19935;-64
2021/05/31 01:18:15;;;;;;;;;;;16.90;72.00;;;;;;5053884;28;19962;-65
2021/05/31 01:20:59;;;;;;;;;;;16.90;71.80;;;;;;5071198;28;19947;-66
2021/05/31 01:23:26;;;;;;;;;;;16.90;71.80;;;;;;5071783;28;19911;-64
2021/05/31 01:25:58;;;;;;;;;;;16.90;71.90;;;;;;5071349;28;20011;-65
2021/05/31 01:28:31;;;;;;;;;;;16.90;71.90;;;;;;5071635;28;19958;-66
2021/05/31 01:30:57;;;;;;;;;;;16.90;71.80;;;;;;5071547;28;19915;-65
2021/05/31 01:33:27;;;;;;;;;;;16.90;72.00;;;;;;5070783;28;20007;-67
2021/05/31 01:35:52;;;;;;;;;;;16.90;72.00;;;;;;5071178;28;19932;-64
2021/05/31 01:38:19;;;;;;;;;;;16.90;71.90;;;;;;5071656;28;19913;-65
2021/05/31 01:40:45;;;;;;;;;;;16.90;71.90;;;;;;5071012;28;19908;-64
2021/05/31 01:43:11;;;;;;;;;;;16.80;72.00;;;;;;5053309;28;19916;-64
2021/05/31 01:45:36;;;;;;;;;;;16.80;72.00;;;;;;5070835;28;19938;-64
2021/05/31 01:48:02;;;;;;;;;;;16.80;72.00;;;;;;5071548;28;19908;-65
2021/05/31 01:50:28;;;;;;;;;;;16.80;72.10;;;;;;5070887;28;19909;-65
2021/05/31 01:52:54;;;;;;;;;;;16.80;72.10;;;;;;5071658;28;19957;-64
2021/05/31 01:55:21;;;;;;;;;;;16.80;72.20;;;;;;5069554;28;19912;-65
2021/05/31 01:57:47;;;;;;;;;;;16.80;72.20;;;;;;5071381;28;19999;-67
2021/05/31 02:00:13;;;;;;;;;;;16.80;72.20;;;;;;5071180;28;19958;-66
2021/05/31 02:02:39;;;;;;;;;;;16.80;72.30;;;;;;5070527;28;19912;-65
2021/05/31 02:05:06;;;;;;;;;;;16.80;72.30;;;;;;5070905;28;19931;-65
2021/05/31 02:07:31;;;;;;;;;;;16.70;72.30;;;;;;5053439;28;19995;-66
2021/05/31 02:09:57;;;;;;;;;;;16.70;72.40;;;;;;5070874;28;19951;-64
2021/05/31 02:12:23;;;;;;;;;;;16.70;72.40;;;;;;5061552;28;19908;-65
2021/05/31 02:14:51;;;;;;;;;;;16.70;72.40;;;;;;5074729;28;19920;-65
2021/05/31 02:17:22;;;;;;;;;;;16.70;72.50;;;;;;5073547;28;19916;-66
2021/05/31 02:19:52;;;;;;;;;;;16.70;72.50;;;;;;5073081;28;20336;-66
2021/05/31 02:22:17;;;;;;;;;;;16.70;72.50;;;;;;5074935;28;19947;-64
2021/05/31 02:24:43;;;;;;;;;;;16.70;72.60;;;;;;5074260;28;19940;-65
2021/05/31 02:27:09;;;;;;;;;;;16.70;72.60;;;;;;5056415;28;19935;-66
2021/05/31 02:29:36;;;;;;;;;;;16.70;72.70;;;;;;5074333;28;20002;-65
2021/05/31 02:32:04;;;;;;;;;;;16.60;72.70;;;;;;5056814;28;20447;-65
2021/05/31 02:34:30;;;;;;;;;;;16.70;72.70;;;;;;5073895;28;19921;-65
2021/05/31 02:36:56;;;;;;;;;;;16.60;72.90;;;;;;5056372;28;19916;-65
2021/05/31 02:39:21;;;;;;;;;;;16.60;72.90;;;;;;5074166;28;19916;-65
2021/05/31 02:41:46;;;;;;;;;;;16.60;73.00;;;;;;5074550;28;20285;-67
2021/05/31 02:44:12;;;;;;;;;;;16.60;72.90;;;;;;5055745;28;19915;-66
2021/05/31 02:46:37;;;;;;;;;;;16.60;72.80;;;;;;5055844;28;20131;-66
2021/05/31 02:49:03;;;;;;;;;;;16.60;72.90;;;;;;5056465;28;19904;-66
2021/05/31 02:51:29;;;;;;;;;;;16.60;72.90;;;;;;5074490;28;19971;-64
2021/05/31 02:53:54;;;;;;;;;;;16.60;72.90;;;;;;5073683;28;19912;-65
2021/05/31 02:56:20;;;;;;;;;;;16.60;73.10;;;;;;5073799;28;19915;-66
2021/05/31 02:58:45;;;;;;;;;;;16.60;73.30;;;;;;5074058;28;20003;-65
2021/05/31 03:01:11;;;;;;;;;;;16.60;73.30;;;;;;5074081;28;19908;-65
2021/05/31 03:03:36;;;;;;;;;;;16.50;73.20;;;;;;5073229;28;19908;-64
2021/05/31 03:06:02;;;;;;;;;;;16.60;73.40;;;;;;5073602;28;20393;-64
2021/05/31 03:08:27;;;;;;;;;;;16.50;73.20;;;;;;5073790;28;19908;-65
2021/05/31 03:10:54;;;;;;;;;;;16.50;73.30;;;;;;5073795;28;20419;-65
2021/05/31 03:13:20;;;;;;;;;;;16.50;73.30;;;;;;5055438;28;19908;-65
2021/05/31 03:15:46;;;;;;;;;;;16.50;73.30;;;;;;5073083;28;19961;-65
2021/05/31 03:18:12;;;;;;;;;;;16.50;73.20;;;;;;5055882;28;19930;-64
2021/05/31 03:20:37;;;;;;;;;;;16.50;73.40;;;;;;5073580;28;19977;-65
2021/05/31 03:23:03;;;;;;;;;;;16.50;73.40;;;;;;5055530;28;19915;-66
2021/05/31 03:25:28;;;;;;;;;;;16.50;73.40;;;;;;5073225;28;19990;-64
2021/05/31 03:27:54;;;;;;;;;;;16.50;73.40;;;;;;5055381;28;19914;-65
2021/05/31 03:30:20;;;;;;;;;;;16.50;73.50;;;;;;5073061;28;19908;-66
2021/05/31 03:32:45;;;;;;;;;;;16.50;73.50;;;;;;5072919;28;19954;-65
2021/05/31 03:35:12;;;;;;;;;;;16.50;73.40;;;;;;5072988;28;19919;-65
2021/05/31 03:37:38;;;;;;;;;;;16.50;73.50;;;;;;5055055;28;19923;-67
2021/05/31 03:40:04;;;;;;;;;;;16.50;73.40;;;;;;5055387;28;20382;-66
2021/05/31 03:42:30;;;;;;;;;;;16.50;73.30;;;;;;5072592;28;19916;-66
2021/05/31 03:44:55;;;;;;;;;;;16.50;73.30;;;;;;5072514;28;19970;-65
2021/05/31 03:47:21;;;;;;;;;;;16.50;73.20;;;;;;5072956;28;19915;-66
2021/05/31 03:49:47;;;;;;;;;;;16.50;73.20;;;;;;5055158;28;19942;-67
2021/05/31 03:52:12;;;;;;;;;;;16.50;73.20;;;;;;5055086;28;19904;-68
2021/05/31 03:54:38;;;;;;;;;;;16.50;73.20;;;;;;5054323;28;19938;-65
2021/05/31 03:57:03;;;;;;;;;;;16.50;73.20;;;;;;5072953;28;20404;-66
2021/05/31 03:59:30;;;;;;;;;;;16.50;73.20;;;;;;5072478;28;19909;-65
2021/05/31 04:01:55;;;;;;;;;;;16.50;73.30;;;;;;5054144;28;19915;-65
2021/05/31 04:04:21;;;;;;;;;;;16.50;73.30;;;;;;5072271;28;19908;-65
2021/05/31 04:11:57;;;;;;;;;;;16.50;73.40;;;;;;5071074;28;20293;-65
2021/05/31 04:14:22;;;;;;;;;;;16.50;73.40;;;;;;5074758;28;20014;-62
2021/05/31 04:16:49;;;;;;;;;;;16.50;73.50;;;;;;5070947;28;20294;-66
2021/05/31 04:19:16;;;;;;;;;;;16.50;73.40;;;;;;5058841;28;19938;-68
2021/05/31 04:21:43;;;;;;;;;;;16.50;73.50;;;;;;5064850;28;19904;-69
2021/05/31 04:24:09;;;;;;;;;;;16.60;73.70;;;;;;5065658;28;19962;-67
2021/05/31 04:26:35;;;;;;;;;;;16.60;73.80;;;;;;5067183;28;19912;-65
2021/05/31 04:29:01;;;;;;;;;;;16.60;74.00;;;;;;5053460;28;19915;-66
2021/05/31 04:31:27;;;;;;;;;;;16.60;74.00;;;;;;5067310;28;20048;-67
2021/05/31 04:33:52;;;;;;;;;;;16.60;74.00;;;;;;5047372;28;20369;-65
2021/05/31 04:36:18;;;;;;;;;;;16.60;74.00;;;;;;5047480;28;20528;-67
2021/05/31 04:38:43;;;;;;;;;;;16.60;74.00;;;;;;5064270;28;20904;-65
2021/05/31 04:41:09;;;;;;;;;;;16.60;73.70;;;;;;5064987;28;20456;-67
2021/05/31 04:43:34;;;;;;;;;;;16.60;74.40;;;;;;5065077;28;19912;-66
2021/05/31 04:46:00;;;;;;;;;;;16.60;74.70;;;;;;5047808;28;19908;-65
2021/05/31 04:48:25;;;;;;;;;;;16.60;75.00;;;;;;5064981;28;20099;-67
2021/05/31 04:50:56;;;;;;;;;;;16.60;75.20;;;;;;5047253;28;20439;-66
2021/05/31 04:53:22;;;;;;;;;;;16.60;75.40;;;;;;5065798;28;19987;-65
2021/05/31 04:55:48;;;;;;;;;;;16.70;75.70;;;;;;5047315;28;19912;-66
2021/05/31 04:58:13;;;;;;;;;;;16.70;75.60;;;;;;5064615;28;19981;-67
2021/05/31 05:00:39;;;;;;;;;;;16.70;75.80;;;;;;5060742;28;19904;-65
2021/05/31 05:03:04;;;;;;;;;;;16.70;74.90;;;;;;5059043;28;19939;-66
2021/05/31 05:05:30;;;;;;;;;;;16.80;75.80;;;;;;5060290;28;19904;-65
2021/05/31 05:07:55;;;;;;;;;;;16.80;76.00;;;;;;5060992;28;19962;-65
2021/05/31 05:10:21;;;;;;;;;;;16.80;75.70;;;;;;5063152;28;20051;-66
2021/05/31 05:12:48;;;;;;;;;;;16.80;75.70;;;;;;5065417;28;19930;-66
2021/05/31 05:15:14;;;;;;;;;;;16.80;75.50;;;;;;5065645;28;19908;-65
2021/05/31 05:17:39;;;;;;;;;;;16.80;75.40;;;;;;5043157;28;20312;-66
2021/05/31 05:20:06;;;;;;;;;;;16.80;74.30;;;;;;5055146;28;20387;-68
2021/05/31 05:22:31;;;;;;;;;;;16.80;74.70;;;;;;5064689;28;19908;-66
2021/05/31 05:24:57;;;;;;;;;;;16.90;74.80;;;;;;5052195;28;19954;-65
2021/05/31 05:27:23;;;;;;;;;;;16.90;74.70;;;;;;5044775;28;20331;-69
2021/05/31 05:29:48;;;;;;;;;;;16.90;74.60;;;;;;5037815;28;20320;-66
2021/05/31 05:32:14;;;;;;;;;;;16.90;74.60;;;;;;5038902;28;19917;-68
2021/05/31 05:34:39;;;;;;;;;;;16.90;74.40;;;;;;5060646;28;20358;-64
2021/05/31 05:37:15;;;;;;;;;;;16.90;74.90;;;;;;5062728;28;19986;-67
2021/05/31 05:45:18;;;;;;;;;;;17.00;76.20;;;;;;5055813;28;19919;-66
2021/05/31 05:47:46;;;;;;;;;;;17.00;76.20;;;;;;5054744;28;19912;-64
2021/05/31 05:50:20;;;;;;;;;;;17.10;76.70;;;;;;5049484;28;19916;-66
2021/05/31 05:52:46;;;;;;;;;;;17.10;76.30;;;;;;5049276;28;19950;-65
2021/05/31 05:55:12;;;;;;;;;;;17.10;76.10;;;;;;5068805;28;20727;-65
2021/05/31 05:57:38;;;;;;;;;;;17.10;75.90;;;;;;5047817;28;19996;-65
2021/05/31 06:00:05;;;;;;;;;;;17.10;75.50;;;;;;5051350;28;19909;-65
2021/05/31 06:02:31;;;;;;;;;;;17.10;75.90;;;;;;5048454;28;19909;-65
2021/05/31 06:04:56;;;;;;;;;;;17.20;75.70;;;;;;5030350;28;20372;-70
2021/05/31 06:07:22;;;;;;;;;;;17.10;75.30;;;;;;5048912;28;19995;-66
2021/05/31 06:09:47;;;;;;;;;;;17.10;75.20;;;;;;5036416;28;19974;-68
2021/05/31 06:12:13;;;;;;;;;;;17.10;75.00;;;;;;5064122;28;19919;-67
2021/05/31 06:14:38;;;;;;;;;;;17.10;74.80;;;;;;5068082;28;20062;-68
2021/05/31 06:17:04;;;;;;;;;;;17.20;75.30;;;;;;5050124;28;19912;-68
2021/05/31 06:19:30;;;;;;;;;;;17.30;74.80;;;;;;5067913;28;19969;-67
2021/05/31 06:21:55;;;;;;;;;;;17.30;75.00;;;;;;5066895;28;20037;-64
2021/05/31 06:24:21;;;;;;;;;;;17.30;75.10;;;;;;5066965;28;19999;-65
2021/05/31 06:26:46;;;;;;;;;;;17.40;75.30;;;;;;5067922;28;20358;-68
2021/05/31 06:29:12;;;;;;;;;;;17.40;74.70;;;;;;5052981;28;19985;-69
2021/05/31 06:31:37;;;;;;;;;;;17.50;73.90;;;;;;5072745;28;19919;-64
2021/05/31 06:34:03;;;;;;;;;;;17.40;73.70;;;;;;5072794;28;19923;-65
2021/05/31 06:36:30;;;;;;;;;;;17.40;73.60;;;;;;5073826;28;19915;-63
2021/05/31 06:38:55;;;;;;;;;;;17.50;73.90;;;;;;5074695;28;19912;-63
2021/05/31 06:41:21;;;;;;;;;;;17.40;73.10;;;;;;5074044;28;19905;-63
2021/05/31 06:43:46;;;;;;;;;;;17.50;73.20;;;;;;5074292;28;20210;-65
2021/05/31 06:46:12;;;;;;;;;;;17.50;73.10;;;;;;5074673;28;19910;-65
2021/05/31 06:48:37;;;;;;;;;;;17.50;72.80;;;;;;5074414;28;19905;-65
2021/05/31 06:51:03;;;;;;;;;;;17.50;72.80;;;;;;5074447;28;19904;-64
2021/05/31 06:53:29;;;;;;;;;;;17.50;72.60;;;;;;5055984;28;19918;-65
2021/05/31 06:55:54;;;;;;;;;;;17.50;72.30;;;;;;5074211;28;19910;-65
2021/05/31 06:58:20;;;;;;;;;;;17.60;72.20;;;;;;5074255;28;20006;-65
2021/05/31 07:00:46;;;;;;;;;;;17.60;72.40;;;;;;5074353;28;20221;-64
2021/05/31 07:03:13;;;;;;;;;;;17.60;72.30;;;;;;5074094;28;19904;-67
2021/05/31 07:05:38;;;;;;;;;;;17.70;72.00;;;;;;5073242;28;20389;-64
2021/05/31 07:08:04;;;;;;;;;;;17.60;71.80;;;;;;5074075;28;20215;-65
2021/05/31 07:10:30;;;;;;;;;;;17.70;71.90;;;;;;5073957;28;19905;-65
2021/05/31 07:12:55;;;;;;;;;;;17.70;71.80;;;;;;5056026;28;19995;-65
2021/05/31 07:15:21;;;;;;;;;;;17.80;71.70;;;;;;5073592;28;19958;-65
2021/05/31 07:17:47;;;;;;;;;;;17.80;71.30;;;;;;5055790;28;20281;-65
2021/05/31 07:20:13;;;;;;;;;;;18.00;71.90;;;;;;5073912;28;19905;-64
2021/05/31 07:22:40;;;;;;;;;;;18.30;70.90;;;;;;5055873;28;20320;-64
2021/05/31 07:25:06;;;;;;;;;;;18.60;69.60;;;;;;5073455;28;19905;-67
2021/05/31 07:27:32;;;;;;;;;;;18.70;68.50;;;;;;5073543;28;19935;-66
2021/05/31 07:29:58;;;;;;;;;;;18.90;68.50;;;;;;5073640;28;19905;-65
2021/05/31 07:32:24;;;;;;;;;;;19.00;67.80;;;;;;5073560;28;20328;-68
2021/05/31 07:34:49;;;;;;;;;;;19.10;67.30;;;;;;5055250;28;19916;-65
2021/05/31 07:37:15;;;;;;;;;;;19.20;67.00;;;;;;5055470;28;19908;-65
2021/05/31 07:39:40;;;;;;;;;;;19.30;66.60;;;;;;5072806;28;19926;-67
2021/05/31 07:42:06;;;;;;;;;;;19.40;66.20;;;;;;5073403;28;20412;-65
2021/05/31 07:44:31;;;;;;;;;;;19.40;65.70;;;;;;5055211;28;19909;-64
2021/05/31 07:46:57;;;;;;;;;;;19.60;65.40;;;;;;5073222;28;19905;-65
2021/05/31 07:49:22;;;;;;;;;;;19.60;64.90;;;;;;5055595;28;19991;-65
2021/05/31 07:51:48;;;;;;;;;;;19.70;64.60;;;;;;5073153;28;19912;-65
2021/05/31 07:54:15;;;;;;;;;;;19.70;64.20;;;;;;5072800;28;20346;-65
2021/05/31 07:56:40;;;;;;;;;;;19.80;64.20;;;;;;5073016;28;19909;-65
2021/05/31 07:59:06;;;;;;;;;;;19.90;63.50;;;;;;5073068;28;19904;-65
2021/05/31 08:01:33;;;;;;;;;;;19.90;63.60;;;;;;5055128;28;19905;-65
2021/05/31 08:03:59;;;;;;;;;;;20.00;63.30;;;;;;5072792;28;20335;-65
2021/05/31 08:06:25;;;;;;;;;;;20.10;62.90;;;;;;5072778;28;19918;-64
2021/05/31 08:08:50;;;;;;;;;;;20.10;62.90;;;;;;5072819;28;19904;-64
2021/05/31 08:11:16;;;;;;;;;;;20.10;62.10;;;;;;5054972;28;19950;-66
2021/05/31 08:13:41;;;;;;;;;;;20.20;62.00;;;;;;5072442;28;19954;-65
2021/05/31 08:16:07;;;;;;;;;;;20.20;62.10;;;;;;5072202;28;19908;-65
2021/05/31 08:18:33;;;;;;;;;;;20.20;61.70;;;;;;5072293;28;20323;-65
2021/05/31 08:20:59;;;;;;;;;;;20.30;61.70;;;;;;5072586;28;20330;-66
2021/05/31 08:23:24;;;;;;;;;;;20.30;61.50;;;;;;5072544;28;19908;-65
2021/05/31 08:25:49;;;;;;;;;;;20.40;61.10;;;;;;5072357;28;19999;-64
2021/05/31 08:28:15;;;;;;;;;;;20.40;61.10;;;;;;5054668;28;19911;-66
2021/05/31 08:30:42;;;;;;;;;;;20.50;60.70;;;;;;5072506;28;19912;-64
2021/05/31 08:33:08;;;;;;;;;;;20.60;60.80;;;;;;5072466;28;20366;-65
2021/05/31 08:35:34;;;;;;;;;;;20.60;60.60;;;;;;5071992;28;20273;-64
2021/05/31 08:37:59;;;;;;;;;;;20.80;61.00;;;;;;5072332;28;19915;-66
2021/05/31 08:40:25;;;;;;;;;;;20.90;60.70;;;;;;5072218;28;19919;-65
2021/05/31 08:42:51;;;;;;;;;;;20.90;60.10;;;;;;5072353;28;19911;-65
2021/05/31 08:45:18;;;;;;;;;;;21.00;59.90;;;;;;5072021;28;19911;-65
2021/05/31 08:47:44;;;;;;;;;;;21.00;59.80;;;;;;5072195;28;19908;-65
2021/05/31 08:50:12;;;;;;;;;;;21.00;59.40;;;;;;5072275;28;19908;-65
2021/05/31 08:52:38;;;;;;;;;;;21.00;59.40;;;;;;5072234;28;19908;-64
2021/05/31 08:55:04;;;;;;;;;;;21.10;59.40;;;;;;5053822;28;20002;-65
2021/05/31 08:57:29;;;;;;;;;;;21.10;59.00;;;;;;5072064;28;19904;-65
2021/05/31 08:59:55;;;;;;;;;;;21.10;58.70;;;;;;5072148;28;19912;-65
2021/05/31 09:02:21;;;;;;;;;;;21.20;58.80;;;;;;5072046;28;20362;-66
2021/05/31 09:04:47;;;;;;;;;;;21.20;58.40;;;;;;5071841;28;19911;-64
2021/05/31 09:07:12;;;;;;;;;;;21.30;58.40;;;;;;5072064;28;19905;-65
2021/05/31 09:09:39;;;;;;;;;;;21.30;58.20;;;;;;5054265;28;19905;-65
2021/05/31 09:12:06;;;;;;;;;;;21.30;58.50;;;;;;5054126;28;19904;-65
2021/05/31 09:14:32;;;;;;;;;;;21.30;57.90;;;;;;5071642;28;19908;-65
2021/05/31 09:16:57;;;;;;;;;;;21.30;57.90;;;;;;5053724;28;19919;-65
2021/05/31 09:19:23;;;;;;;;;;;21.40;57.90;;;;;;5071994;28;19990;-64
2021/05/31 09:21:49;;;;;;;;;;;21.40;57.50;;;;;;5071953;28;19958;-65
2021/05/31 09:24:22;;;;;;;;;;;21.40;57.30;;;;;;5071670;28;20387;-65
2021/05/31 09:26:49;;;;;;;;;;;21.50;57.00;;;;;;5071859;28;19911;-66
2021/05/31 09:29:15;;;;;;;;;;;21.50;57.10;;;;;;5055622;28;20006;-64
2021/05/31 09:31:41;;;;;;;;;;;21.50;56.80;;;;;;5075215;28;19911;-65
2021/05/31 09:34:08;;;;;;;;;;;21.50;56.90;;;;;;5057053;28;19909;-65
2021/05/31 09:36:46;;;;;;;;;;;21.60;56.70;;;;;;5057810;28;20373;-65
2021/05/31 09:39:11;;;;;;;;;;;21.60;56.70;;;;;;5057293;28;19905;-65
2021/05/31 09:41:37;;;;;;;;;;;21.60;56.40;;;;;;5075583;28;20006;-66
2021/05/31 09:44:04;;;;;;;;;;;21.70;56.30;;;;;;5057441;28;19962;-65
2021/05/31 09:46:42;;;;;;;;;;;21.70;56.00;;;;;;5075549;28;19962;-65
2021/05/31 09:49:17;;;;;;;;;;;21.70;55.70;;;;;;5075581;28;19936;-65
2021/05/31 09:52:06;;;;;;;;;;;21.70;55.50;;;;;;5057490;28;19910;-67
2021/05/31 09:54:42;;;;;;;;;;;21.70;55.80;;;;;;5069342;28;19915;-65
2021/05/31 09:57:17;;;;;;;;;;;21.80;55.70;;;;;;5075365;28;19911;-66
2021/05/31 09:59:44;;;;;;;;;;;21.90;55.50;;;;;;5075312;28;20369;-65
2021/05/31 10:02:13;;;;;;;;;;;21.90;55.20;;;;;;5057328;28;19916;-67
2021/05/31 10:05:05;;;;;;;;;;;21.90;55.00;;;;;;5074920;28;19912;-65
2021/05/31 10:09:59;;;;;;;;;;;22.00;54.80;;;;;;5075176;28;20006;-65
2021/05/31 10:12:28;;;;;;;;;;;22.00;54.70;;;;;;5075123;28;19911;-65
2021/05/31 10:14:54;;;;;;;;;;;22.10;54.70;;;;;;5056682;28;20012;-65
2021/05/31 10:17:23;;;;;;;;;;;22.10;54.50;;;;;;5074895;28;20270;-66
2021/05/31 10:19:49;;;;;;;;;;;22.10;54.60;;;;;;5074970;28;19917;-66
2021/05/31 10:22:14;;;;;;;;;;;22.10;54.60;;;;;;5075001;28;20319;-64
2021/05/31 10:24:40;;;;;;;;;;;22.10;54.50;;;;;;5056781;28;19998;-65
2021/05/31 10:27:08;;;;;;;;;;;22.20;54.20;;;;;;5074845;28;19911;-65
2021/05/31 10:29:34;;;;;;;;;;;22.30;54.00;;;;;;5056810;28;19909;-65
2021/05/31 10:32:08;;;;;;;;;;;22.30;53.90;;;;;;5074759;28;19911;-65
2021/05/31 10:34:42;;;;;;;;;;;22.30;53.90;;;;;;5074403;28;20017;-67
2021/05/31 10:37:15;;;;;;;;;;;22.40;54.00;;;;;;5057182;28;19904;-66
2021/05/31 10:39:40;;;;;;;;;;;22.50;53.80;;;;;;5073635;28;20366;-66
2021/05/31 10:42:06;;;;;;;;;;;22.50;53.70;;;;;;5074523;28;19904;-64
2021/05/31 10:44:32;;;;;;;;;;;22.60;53.60;;;;;;5056336;28;19911;-66
2021/05/31 10:47:05;;;;;;;;;;;22.60;53.30;;;;;;5074467;28;19912;-65
2021/05/31 10:49:31;;;;;;;;;;;22.60;53.30;;;;;;5074480;28;19904;-65
2021/05/31 10:51:56;;;;;;;;;;;22.70;53.30;;;;;;5068020;28;19916;-67
2021/05/31 10:54:23;;;;;;;;;;;22.70;53.20;;;;;;5050270;28;20002;-65
2021/05/31 10:56:49;;;;;;;;;;;22.70;53.10;;;;;;5068975;28;20292;-65
2021/05/31 10:59:19;;;;;;;;;;;22.70;53.10;;;;;;5046828;28;19904;-65
2021/05/31 11:01:45;;;;;;;;;;;22.60;53.20;;;;;;5070953;28;19909;-65
2021/05/31 11:04:10;;;;;;;;;;;22.60;53.30;;;;;;5065217;28;19919;-64
2021/05/31 11:06:39;;;;;;;;;;;22.60;53.40;;;;;;5065324;28;19931;-65
2021/05/31 11:09:12;;;;;;;;;;;22.50;53.30;;;;;;5071191;28;19904;-65
2021/05/31 11:11:39;;;;;;;;;;;22.50;53.40;;;;;;5069336;28;19915;-65
2021/05/31 11:14:08;;;;;;;;;;;22.50;53.50;;;;;;5073560;28;19913;-65
2021/05/31 11:16:34;;;;;;;;;;;22.40;53.50;;;;;;5055771;28;19952;-64
2021/05/31 11:19:00;;;;;;;;;;;22.40;53.40;;;;;;5073612;28;19908;-66
2021/05/31 11:21:28;;;;;;;;;;;22.40;53.60;;;;;;5072549;28;19911;-65
2021/05/31 11:23:58;;;;;;;;;;;22.30;53.60;;;;;;5055519;28;19904;-65
2021/05/31 11:26:25;;;;;;;;;;;22.20;53.70;;;;;;5055607;28;19922;-66
2021/05/31 11:28:53;;;;;;;;;;;22.20;54.00;;;;;;5047492;28;19909;-65
2021/05/31 11:31:19;;;;;;;;;;;22.20;54.30;;;;;;5035676;28;19966;-65
2021/05/31 11:33:47;;;;;;;;;;;22.20;54.10;;;;;;5053036;28;20023;-64
2021/05/31 11:36:12;;;;;;;;;;;22.20;54.20;;;;;;5052211;28;19920;-64
2021/05/31 11:38:40;;;;;;;;;;;22.20;54.10;;;;;;5053456;28;19904;-65
2021/05/31 11:41:09;;;;;;;;;;;22.10;54.50;;;;;;5053402;28;20336;-65
2021/05/31 11:43:34;;;;;;;;;;;22.00;54.70;;;;;;5053115;28;19947;-65
2021/05/31 11:46:00;;;;;;;;;;;22.00;54.70;;;;;;5038985;28;20251;-64
2021/05/31 11:48:25;;;;;;;;;;;22.00;55.10;;;;;;5069258;28;19999;-66
2021/05/31 11:50:51;;;;;;;;;;;22.00;55.80;;;;;;5072431;28;19915;-64
2021/05/31 11:53:17;;;;;;;;;;;22.00;55.70;;;;;;5054498;28;19917;-65
2021/05/31 11:55:43;;;;;;;;;;;22.00;55.30;;;;;;5071687;28;20010;-66
2021/05/31 11:58:11;;;;;;;;;;;21.80;55.40;;;;;;5054974;28;19924;-65
2021/05/31 12:00:39;;;;;;;;;;;21.70;55.70;;;;;;5073078;28;19905;-65
2021/05/31 12:03:04;;;;;;;;;;;21.60;56.00;;;;;;5073030;28;20384;-65
2021/05/31 12:05:32;;;;;;;;;;;21.60;56.10;;;;;;5072734;28;19904;-66
2021/05/31 12:08:02;;;;;;;;;;;21.50;56.30;;;;;;5073260;28;19908;-65
2021/05/31 12:10:27;;;;;;;;;;;21.50;56.20;;;;;;5072863;28;19904;-65
2021/05/31 12:12:53;;;;;;;;;;;21.40;56.20;;;;;;5072760;28;19905;-65
2021/05/31 12:15:18;;;;;;;;;;;21.30;56.50;;;;;;5050303;28;20178;-65
2021/05/31 12:17:45;;;;;;;;;;;21.30;56.60;;;;;;5069119;28;19927;-63
2021/05/31 12:20:10;;;;;;;;;;;21.30;56.70;;;;;;5058982;28;19972;-65
2021/05/31 12:22:38;;;;;;;;;;;21.40;57.00;;;;;;5035155;28;19913;-65
2021/05/31 12:25:05;;;;;;;;;;;21.40;56.50;;;;;;5033156;28;19912;-65
2021/05/31 12:27:40;;;;;;;;;;;21.40;56.60;;;;;;5052263;28;19995;-63
2021/05/31 12:30:10;;;;;;;;;;;21.40;56.90;;;;;;5053875;28;20370;-65
2021/05/31 12:32:36;;;;;;;;;;;21.40;56.80;;;;;;5053172;28;19932;-64
2021/05/31 12:35:03;;;;;;;;;;;21.40;56.50;;;;;;5071839;28;20382;-65
2021/05/31 12:37:33;;;;;;;;;;;21.40;56.40;;;;;;5072421;28;19908;-65
2021/05/31 12:40:02;;;;;;;;;;;21.40;56.20;;;;;;5072336;28;19904;-65
2021/05/31 12:42:29;;;;;;;;;;;21.30;56.30;;;;;;5054442;28;19904;-64
2021/05/31 12:45:03;;;;;;;;;;;21.30;56.50;;;;;;5071949;28;19995;-66
2021/05/31 12:47:33;;;;;;;;;;;21.30;56.60;;;;;;5071185;28;19931;-66
2021/05/31 12:49:59;;;;;;;;;;;21.30;56.70;;;;;;5036305;28;19995;-66
2021/05/31 12:52:29;;;;;;;;;;;21.20;56.80;;;;;;5055644;28;19948;-66
2021/05/31 12:54:59;;;;;;;;;;;21.20;56.70;;;;;;5071803;28;19967;-66
2021/05/31 12:57:29;;;;;;;;;;;21.10;56.70;;;;;;5072018;28;19911;-65
2021/05/31 12:59:55;;;;;;;;;;;21.10;57.50;;;;;;5072115;28;19911;-65
2021/05/31 13:02:20;;;;;;;;;;;21.10;57.60;;;;;;5053943;28;20008;-65
2021/05/31 13:04:57;;;;;;;;;;;21.10;57.30;;;;;;5070133;28;19904;-66
2021/05/31 13:07:23;;;;;;;;;;;21.10;57.30;;;;;;5066642;28;19922;-66
2021/05/31 13:09:48;;;;;;;;;;;21.10;57.80;;;;;;5055040;28;20321;-66
2021/05/31 13:12:14;;;;;;;;;;;21.00;58.00;;;;;;5034069;28;19915;-66
2021/05/31 13:14:43;;;;;;;;;;;21.00;57.80;;;;;;5051656;28;19957;-64
2021/05/31 13:17:09;;;;;;;;;;;21.00;57.90;;;;;;5051795;28;19913;-66
2021/05/31 13:19:37;;;;;;;;;;;21.00;57.80;;;;;;5034058;28;20366;-66
2021/05/31 13:22:03;;;;;;;;;;;20.90;58.70;;;;;;5039159;28;19912;-66
2021/05/31 13:24:30;;;;;;;;;;;20.90;58.30;;;;;;5058224;28;19908;-65
2021/05/31 13:26:56;;;;;;;;;;;20.90;58.20;;;;;;5041996;28;19905;-66
2021/05/31 13:29:25;;;;;;;;;;;20.80;58.00;;;;;;5082298;28;19987;-66
2021/05/31 13:31:51;;;;;;;;;;;20.80;58.40;;;;;;5041772;28;20255;-65
2021/05/31 13:34:17;;;;;;;;;;;20.80;58.30;;;;;;5050701;28;19908;-65
2021/05/31 13:36:42;;;;;;;;;;;20.70;58.40;;;;;;5051314;28;19916;-65
2021/05/31 13:39:10;;;;;;;;;;;20.80;58.40;;;;;;5051660;28;19912;-66
2021/05/31 13:41:36;;;;;;;;;;;20.70;58.60;;;;;;5059370;28;19904;-65
2021/05/31 13:44:07;;;;;;;;;;;20.70;58.60;;;;;;5071425;28;20003;-66
2021/05/31 13:46:34;;;;;;;;;;;20.70;58.60;;;;;;5071681;28;19995;-66
2021/05/31 13:48:59;;;;;;;;;;;20.70;58.80;;;;;;5071596;28;19912;-66
2021/05/31 13:51:25;;;;;;;;;;;20.70;58.90;;;;;;5049399;28;19962;-65
2021/05/31 13:53:51;;;;;;;;;;;20.60;58.60;;;;;;5070330;28;19917;-65
2021/05/31 13:56:17;;;;;;;;;;;20.60;58.50;;;;;;5051891;28;19905;-66
2021/05/31 13:58:42;;;;;;;;;;;20.60;58.50;;;;;;5053599;28;19951;-66
2021/05/31 14:01:08;;;;;;;;;;;20.50;58.80;;;;;;5053046;28;19911;-65
2021/05/31 14:03:33;;;;;;;;;;;20.50;59.00;;;;;;5065117;28;19942;-66
2021/05/31 14:05:59;;;;;;;;;;;20.50;59.00;;;;;;5033601;28;20358;-65
2021/05/31 14:08:24;;;;;;;;;;;20.50;59.00;;;;;;5044502;28;20362;-65
2021/05/31 14:10:50;;;;;;;;;;;20.40;58.80;;;;;;5066715;28;19908;-65
2021/05/31 14:13:15;;;;;;;;;;;20.40;58.20;;;;;;5071138;28;20385;-66
2021/05/31 14:15:41;;;;;;;;;;;20.30;58.00;;;;;;5055112;28;19919;-66
2021/05/31 14:19:33;;;;;;;6.38;1.20;;;20.30;59.10;;;;;;5112122;27;20405;-67
2021/05/31 14:21:59;;;;;;;3.63;1.10;;;20.00;60.00;;;;;;5118297;28;20547;-64
2021/05/31 14:24:26;;;;;;;3.70;1.20;;;19.80;60.90;;;;;;5116964;28;20024;-64
2021/05/31 14:26:51;;;;;;;4.00;1.20;;;19.80;61.30;;;;;;5125150;28;20032;-67
2021/05/31 14:29:17;;;;;;;3.65;0.98;;;19.80;61.50;;;;;;5115249;27;20627;-65